To NAV CANADA Home Page Login to a new session Search on AWWS site Feedback and Comments Disclaimer Vers la page française équivalente Tips FAQ What's new on the site To the Forecasts and Observations / NOTAM section To "File a Flight Plan" website Publications and other links Update of the User's profile FIC Telephone Numbers My Weather Data Folder Route Weather Data Regional Weather Data Local Weather Data To the Forecasts and Observations / NOTAM section
Request Generated 02/23/2017 at 20:45:33 UTC . Weather information available at that time is displayed.

METAR/TAF

ABBOTSFORD/BC    

METAR CYXX 232000Z 24002KT 25SM FEW022 SCT035TCU BKN057 05/00 A3025
RMK CU1TCU3SC3 CU TR SLP248=
METAR CYXX 231900Z VRB02KT 25SM FEW020 FEW033 BKN058 BKN220 04/00
A3025 RMK CF1CU1SC4CI1 CF TR CI TR SLP249=
METAR CYXX 231800Z 34005KT 25SM FEW010 FEW020 BKN056 03/00 A3026 RMK
CF1CU1SC5 CF TR SLP251=

TAF CYXX 231738Z 2318/2418 02005KT P6SM SCT020 BKN040 TEMPO 2318/2323
BKN020
BECMG 2318/2320 20006KT
FM232300 20006KT P6SM SCT020 BKN040 TEMPO 2323/2406 P6SM -SHRA
BKN020
FM240600 05005KT P6SM -SHRA SCT020 BKN040 TEMPO 2406/2408 5SM
-SHRASN BR
FM240800 03005KT 6SM -SHRASN SCT020 OVC040 TEMPO 2408/2415 2SM
-SHSN BR OVC020
FM241500 03005KT P6SM SCT040 BKN100
RMK NXT FCST BY 240000Z=
Your time UTC time
Weather data provided by Environment Canada and NAV CANADA